createdAt,value
2022-08-08T00:00:53.600Z,8.30
2022-08-08T00:01:08.461Z,8.70
2022-08-08T00:02:03.241Z,8.20
2022-08-08T00:02:35.267Z,8.50
2022-08-08T00:03:34.603Z,8.60
2022-08-08T00:04:34.589Z,9.00
2022-08-08T00:05:43.527Z,9.40
2022-08-08T00:06:35.253Z,9.70
2022-08-08T00:07:34.507Z,10.20
2022-08-08T00:08:34.506Z,9.90
2022-08-08T00:09:34.481Z,9.70
2022-08-08T00:10:34.476Z,9.00
2022-08-08T00:11:46.499Z,9.40
2022-08-08T00:12:34.496Z,9.60
2022-08-08T00:14:17.572Z,10.20
2022-08-08T00:15:05.016Z,9.60
2022-08-08T00:15:56.933Z,9.60
2022-08-08T00:16:34.435Z,9.30
2022-08-08T00:17:48.352Z,9.00
2022-08-08T00:18:34.397Z,9.30
2022-08-08T00:19:34.374Z,9.30
2022-08-08T00:20:36.916Z,9.10
2022-08-08T00:21:39.730Z,9.10
2022-08-08T00:22:34.322Z,9.10
2022-08-08T00:23:43.239Z,9.20
2022-08-08T00:24:34.290Z,8.80
2022-08-08T00:25:45.063Z,8.90
2022-08-08T00:26:34.265Z,8.90
2022-08-08T00:27:35.775Z,8.90
2022-08-08T00:28:36.799Z,8.70
2022-08-08T00:29:44.196Z,9.10
2022-08-08T00:30:34.209Z,8.60
2022-08-08T00:32:07.821Z,9.10
2022-08-08T00:32:36.314Z,9.60
2022-08-08T00:34:17.187Z,9.40
2022-08-08T00:34:35.023Z,9.10
2022-08-08T00:35:34.585Z,9.30
2022-08-08T00:36:35.273Z,9.50
2022-08-08T00:37:47.765Z,9.80
2022-08-08T00:38:44.157Z,10.80
2022-08-08T00:41:06.863Z,10.70
2022-08-08T00:41:14.648Z,10.20
2022-08-08T00:41:54.762Z,10.70
2022-08-08T00:42:36.750Z,10.40
2022-08-08T00:43:40.939Z,10.20
2022-08-08T00:44:34.023Z,10.60
2022-08-08T00:45:34.027Z,10.50
2022-08-08T00:46:56.889Z,10.00
2022-08-08T00:47:36.907Z,10.00
2022-08-08T00:48:34.184Z,9.30
2022-08-08T00:49:33.974Z,9.30
2022-08-08T00:50:33.961Z,9.50
2022-08-08T00:51:39.056Z,9.70
2022-08-08T00:52:40.261Z,9.30
2022-08-08T00:53:43.518Z,9.40
2022-08-08T00:54:34.279Z,8.30
2022-08-08T00:55:52.677Z,8.60
2022-08-08T00:56:33.906Z,8.70
2022-08-08T00:57:34.164Z,8.80
2022-08-08T00:58:34.638Z,8.70
2022-08-08T00:59:44.380Z,8.00
2022-08-08T01:00:37.439Z,8.70
2022-08-08T01:01:38.121Z,8.50
2022-08-08T01:03:53.938Z,8.20
2022-08-08T01:04:07.942Z,8.60
2022-08-08T01:04:33.756Z,8.40
2022-08-08T01:05:58.695Z,8.90
2022-08-08T01:06:33.734Z,8.90
2022-08-08T01:07:34.548Z,8.20
2022-08-08T01:08:33.708Z,8.40
2022-08-08T01:09:35.417Z,8.30
2022-08-08T01:10:33.746Z,8.00
2022-08-08T01:11:33.648Z,8.10
2022-08-08T01:12:34.011Z,8.80
2022-08-08T01:13:43.767Z,8.60
2022-08-08T01:14:54.892Z,8.20
2022-08-08T01:15:43.567Z,8.20
2022-08-08T01:16:33.588Z,8.10
2022-08-08T01:17:52.257Z,9.10
2022-08-08T01:18:53.565Z,8.60
2022-08-08T01:20:01.228Z,9.00
2022-08-08T01:20:33.571Z,8.50
2022-08-08T01:21:35.059Z,8.50
2022-08-08T01:22:35.332Z,8.70
2022-08-08T01:23:55.681Z,9.30
2022-08-08T01:24:33.521Z,9.20
2022-08-08T01:25:40.173Z,9.00
2022-08-08T01:26:33.522Z,9.10
2022-08-08T01:27:44.201Z,9.30
2022-08-08T01:28:33.428Z,9.60
2022-08-08T01:29:35.329Z,9.60
2022-08-08T01:30:33.463Z,9.20
2022-08-08T01:32:06.304Z,8.60
2022-08-08T01:32:33.748Z,8.90
2022-08-08T01:33:43.085Z,8.90
2022-08-08T01:34:34.055Z,8.80
2022-08-08T01:35:38.456Z,8.20
2022-08-08T01:36:33.331Z,8.50
2022-08-08T01:37:56.527Z,8.50
2022-08-08T01:38:33.303Z,8.80
2022-08-08T01:39:34.945Z,9.10
2022-08-08T01:40:33.330Z,9.10
2022-08-08T01:41:34.281Z,8.90
2022-08-08T01:42:36.409Z,8.50
2022-08-08T01:43:34.756Z,8.80
2022-08-08T01:44:33.233Z,8.70
2022-08-08T01:45:33.201Z,8.40
2022-08-08T01:46:33.219Z,8.80
2022-08-08T01:48:03.686Z,8.00
2022-08-08T01:48:33.176Z,8.00
2022-08-08T01:49:37.865Z,8.20
2022-08-08T01:50:35.849Z,8.80
2022-08-08T01:52:04.229Z,8.30
2022-08-08T01:54:06.840Z,8.40
2022-08-08T01:56:27.524Z,8.80
2022-08-08T01:56:37.262Z,8.70
2022-08-08T01:56:46.771Z,8.60
2022-08-08T01:58:12.000Z,8.50
2022-08-08T01:58:47.200Z,8.50
2022-08-08T02:00:02.117Z,8.60
2022-08-08T02:00:42.516Z,8.90
2022-08-08T02:01:55.085Z,8.10
2022-08-08T02:02:43.042Z,9.00
2022-08-08T02:03:49.483Z,8.40
2022-08-08T02:04:43.011Z,8.50
2022-08-08T02:05:56.961Z,9.50
2022-08-08T02:06:43.611Z,7.90
2022-08-08T02:07:49.099Z,9.10
2022-08-08T02:08:45.574Z,8.40
2022-08-08T02:10:01.920Z,8.80
2022-08-08T02:10:45.013Z,8.20
2022-08-08T02:11:58.901Z,8.40
2022-08-08T02:12:42.286Z,8.50
2022-08-08T02:13:53.272Z,8.40
2022-08-08T02:14:50.119Z,8.70
2022-08-08T02:15:42.246Z,8.80
2022-08-08T02:16:42.732Z,8.20
2022-08-08T02:17:43.275Z,8.80
2022-08-08T02:18:42.213Z,8.80
2022-08-08T02:20:08.026Z,9.10
2022-08-08T02:21:01.246Z,9.40
2022-08-08T02:21:42.169Z,9.50
2022-08-08T02:22:46.002Z,9.50
2022-08-08T02:23:42.137Z,8.80
2022-08-08T02:24:42.129Z,9.50
2022-08-08T02:25:47.356Z,9.10
2022-08-08T02:26:42.099Z,8.70
2022-08-08T02:27:42.687Z,9.10
2022-08-08T02:28:42.065Z,8.30
2022-08-08T02:29:51.581Z,9.20
2022-08-08T02:30:50.034Z,8.70
2022-08-08T02:31:59.402Z,9.00
2022-08-08T02:32:42.015Z,8.60
2022-08-08T02:34:07.231Z,8.90
2022-08-08T02:35:07.766Z,8.50
2022-08-08T02:36:04.577Z,8.90
2022-08-08T02:36:41.952Z,9.10
2022-08-08T02:37:52.460Z,9.30
2022-08-08T02:38:41.931Z,9.10
2022-08-08T02:39:59.591Z,9.10
2022-08-08T02:40:42.125Z,8.80
2022-08-08T02:42:04.043Z,8.90
2022-08-08T02:42:42.388Z,9.10
2022-08-08T02:44:39.320Z,9.20
2022-08-08T02:44:57.891Z,9.30
2022-08-08T02:45:54.203Z,9.40
2022-08-08T02:46:41.831Z,9.10
2022-08-08T02:47:41.842Z,8.90
2022-08-08T02:48:42.847Z,9.30
2022-08-08T02:49:50.873Z,8.50
2022-08-08T02:50:41.782Z,9.20
2022-08-08T02:51:55.741Z,9.10
2022-08-08T02:52:41.750Z,9.20
2022-08-08T02:53:41.751Z,9.20
2022-08-08T02:54:41.725Z,9.30
2022-08-08T02:55:41.735Z,8.90
2022-08-08T02:56:41.713Z,9.20
2022-08-08T02:57:44.890Z,9.30
2022-08-08T02:58:41.711Z,9.80
2022-08-08T02:59:57.041Z,9.70
2022-08-08T03:00:47.048Z,9.00
2022-08-08T03:01:50.059Z,9.00
2022-08-08T03:02:41.619Z,8.60
2022-08-08T03:05:01.538Z,8.70
2022-08-08T03:05:11.830Z,8.80
2022-08-08T03:05:45.147Z,8.80
2022-08-08T03:06:41.556Z,9.40
2022-08-08T03:07:59.010Z,8.70
2022-08-08T03:08:41.526Z,8.90
2022-08-08T03:09:41.562Z,8.50
2022-08-08T03:10:44.772Z,9.40
2022-08-08T03:12:02.076Z,8.90
2022-08-08T03:13:01.489Z,8.60
2022-08-08T03:15:58.626Z,9.10
2022-08-08T03:16:51.340Z,9.30
2022-08-08T03:16:56.222Z,9.00
2022-08-08T03:18:04.583Z,8.80
2022-08-08T03:18:56.231Z,9.10
2022-08-08T03:19:56.206Z,8.90
2022-08-08T03:20:56.172Z,8.70
2022-08-08T03:21:59.645Z,9.20
2022-08-08T03:23:00.451Z,9.10
2022-08-08T03:24:01.863Z,9.00
2022-08-08T03:24:56.971Z,9.70
2022-08-08T03:25:56.093Z,9.20
2022-08-08T03:26:56.084Z,9.10
2022-08-08T03:27:56.335Z,8.60
2022-08-08T03:28:56.064Z,9.30
2022-08-08T03:29:56.963Z,9.40
2022-08-08T03:31:22.074Z,9.20
2022-08-08T03:32:06.307Z,9.10
2022-08-08T03:33:00.023Z,8.90
2022-08-08T03:34:00.308Z,9.20
2022-08-08T03:34:56.003Z,9.20
2022-08-08T03:35:55.967Z,9.30
2022-08-08T03:36:55.988Z,9.20
2022-08-08T03:38:54.880Z,8.80
2022-08-08T03:39:07.945Z,8.50
2022-08-08T03:40:00.537Z,9.00
2022-08-08T03:40:56.023Z,8.70
2022-08-08T03:42:26.895Z,7.90
2022-08-08T03:42:55.875Z,8.60
2022-08-08T03:43:55.860Z,8.60
2022-08-08T03:44:55.841Z,8.80
2022-08-08T03:46:06.015Z,10.10
2022-08-08T03:46:55.889Z,8.40
2022-08-08T03:47:55.808Z,8.70
2022-08-08T03:49:38.256Z,9.90
2022-08-08T03:50:03.748Z,9.10
2022-08-08T03:50:55.806Z,9.10
2022-08-08T03:51:55.755Z,10.70
2022-08-08T03:52:55.740Z,10.10
2022-08-08T03:53:55.747Z,9.60
2022-08-08T03:55:10.229Z,9.10
2022-08-08T03:56:04.282Z,8.60
2022-08-08T03:56:55.704Z,8.70
2022-08-08T03:58:33.653Z,8.60
2022-08-08T03:58:55.661Z,9.00
2022-08-08T04:00:02.663Z,9.10
2022-08-08T04:01:01.434Z,8.40
2022-08-08T04:02:33.416Z,9.00
2022-08-08T04:02:56.199Z,8.60
2022-08-08T04:03:58.724Z,9.50
2022-08-08T04:04:55.573Z,9.40
2022-08-08T04:05:55.589Z,19.90
2022-08-08T04:06:55.546Z,22.00
2022-08-08T04:07:55.554Z,11.60
2022-08-08T04:08:55.523Z,13.00
2022-08-08T04:10:00.523Z,8.70
2022-08-08T04:10:59.835Z,9.00
2022-08-08T04:11:58.779Z,24.90
2022-08-08T04:12:55.478Z,14.20
2022-08-08T04:14:04.137Z,10.90
2022-08-08T04:14:55.473Z,12.10
2022-08-08T04:16:04.020Z,10.00
2022-08-08T04:16:55.448Z,9.10
2022-08-08T04:17:59.159Z,9.40
2022-08-08T04:18:55.392Z,10.00
2022-08-08T04:19:55.409Z,10.30
2022-08-08T04:20:55.363Z,9.20
2022-08-08T04:21:55.377Z,9.20
2022-08-08T04:22:56.867Z,9.70
2022-08-08T04:24:05.388Z,9.30
2022-08-08T04:24:55.309Z,9.50
2022-08-08T04:25:55.294Z,9.70
2022-08-08T04:26:57.160Z,9.80
2022-08-08T04:28:02.068Z,9.70
2022-08-08T04:28:55.291Z,10.20
2022-08-08T04:30:17.175Z,9.90
2022-08-08T04:30:57.541Z,10.20
2022-08-08T04:31:59.144Z,10.40
2022-08-08T04:32:55.213Z,11.10
2022-08-08T04:33:55.191Z,10.80
2022-08-08T04:34:56.054Z,11.20
2022-08-08T04:35:56.170Z,10.10
2022-08-08T04:36:55.153Z,9.90
2022-08-08T04:37:55.134Z,9.50
2022-08-08T04:39:48.095Z,9.80
2022-08-08T04:40:12.516Z,9.70
2022-08-08T04:40:55.226Z,10.20
2022-08-08T04:41:55.082Z,9.70
2022-08-08T04:42:56.984Z,9.50
2022-08-08T04:43:57.236Z,9.60
2022-08-08T04:44:55.035Z,9.80
2022-08-08T04:45:55.052Z,9.90
2022-08-08T04:46:55.015Z,9.70
2022-08-08T04:47:55.001Z,9.20
2022-08-08T04:48:55.011Z,9.80
2022-08-08T04:50:00.556Z,9.40
2022-08-08T04:50:54.996Z,10.00
2022-08-08T04:51:57.553Z,9.60
2022-08-08T04:52:58.620Z,9.70
2022-08-08T04:54:39.034Z,10.10
2022-08-08T04:54:54.905Z,9.50
2022-08-08T04:55:56.114Z,9.70
2022-08-08T04:56:54.879Z,9.20
2022-08-08T04:57:54.865Z,9.50
2022-08-08T04:58:54.898Z,8.90
2022-08-08T04:59:54.847Z,9.10
2022-08-08T05:00:54.879Z,8.70
2022-08-08T05:01:59.561Z,9.60
2022-08-08T05:02:54.930Z,9.10
2022-08-08T05:04:11.359Z,9.20
2022-08-08T05:04:54.777Z,9.30
2022-08-08T05:05:54.810Z,9.10
2022-08-08T05:06:54.748Z,8.60
2022-08-08T05:07:56.631Z,8.80
2022-08-08T05:08:54.747Z,9.10
2022-08-08T05:09:54.707Z,9.10
2022-08-08T05:10:54.707Z,9.00
2022-08-08T05:11:57.050Z,8.80
2022-08-08T05:13:01.450Z,9.30
2022-08-08T05:13:58.024Z,8.60
2022-08-08T05:14:54.638Z,9.00
2022-08-08T05:16:53.075Z,9.10
2022-08-08T05:17:08.744Z,9.50
2022-08-08T05:17:54.812Z,8.90
2022-08-08T05:18:54.586Z,9.40
2022-08-08T05:20:09.993Z,9.80
2022-08-08T05:20:54.603Z,8.90
2022-08-08T05:22:00.017Z,8.50
2022-08-08T05:22:54.532Z,8.50
2022-08-08T05:24:04.146Z,8.50
2022-08-08T05:24:54.530Z,8.20
2022-08-08T05:26:00.095Z,8.20
2022-08-08T05:26:54.480Z,8.40
2022-08-08T05:27:54.855Z,8.90
2022-08-08T05:28:57.192Z,8.80
2022-08-08T05:29:54.878Z,8.10
2022-08-08T05:30:54.584Z,8.00
2022-08-08T05:32:04.075Z,8.30
2022-08-08T05:32:54.398Z,7.90
2022-08-08T05:33:54.737Z,8.30
2022-08-08T05:34:54.405Z,8.60
2022-08-08T05:35:54.465Z,8.30
2022-08-08T05:36:54.344Z,8.50
2022-08-08T05:37:54.744Z,8.00
2022-08-08T05:38:54.345Z,8.60
2022-08-08T05:39:54.383Z,8.80
2022-08-08T05:40:57.827Z,8.90
2022-08-08T05:41:55.447Z,8.70
2022-08-08T05:42:54.276Z,8.10
2022-08-08T05:44:03.720Z,8.20
2022-08-08T05:44:54.310Z,8.60
2022-08-08T05:45:55.071Z,8.20
2022-08-08T05:46:54.217Z,8.60
2022-08-08T05:48:00.445Z,8.30
2022-08-08T05:48:54.393Z,8.30
2022-08-08T05:49:56.209Z,7.80
2022-08-08T05:50:58.717Z,7.50
2022-08-08T05:51:54.223Z,8.00
2022-08-08T05:52:54.136Z,8.10
2022-08-08T05:54:26.890Z,7.20
2022-08-08T05:55:00.345Z,7.70
2022-08-08T05:56:07.724Z,7.60
2022-08-08T05:56:54.075Z,7.80
2022-08-08T05:58:05.716Z,7.70
2022-08-08T05:58:58.329Z,7.30
2022-08-08T06:00:22.365Z,7.40
2022-08-08T06:00:58.346Z,7.60
2022-08-08T06:01:57.309Z,7.20
2022-08-08T06:02:54.092Z,7.20
2022-08-08T06:03:54.031Z,7.20
2022-08-08T06:04:54.628Z,7.10
2022-08-08T06:05:53.957Z,7.30
2022-08-08T06:06:53.965Z,7.40
2022-08-08T06:08:02.757Z,7.50
2022-08-08T06:08:55.104Z,7.40
2022-08-08T06:10:01.029Z,7.00
2022-08-08T06:10:53.890Z,7.60
2022-08-08T06:11:53.882Z,7.20
2022-08-08T06:12:53.880Z,7.00
2022-08-08T06:13:54.202Z,7.20
2022-08-08T06:14:53.840Z,6.90
2022-08-08T06:15:54.559Z,7.80
2022-08-08T06:16:53.800Z,8.00
2022-08-08T06:18:20.764Z,7.60
2022-08-08T06:18:53.807Z,7.40
2022-08-08T06:19:53.808Z,6.80
2022-08-08T06:20:56.315Z,7.20
2022-08-08T06:21:57.262Z,7.10
2022-08-08T06:22:53.732Z,6.90
2022-08-08T06:24:03.507Z,6.90
2022-08-08T06:24:53.710Z,6.70
2022-08-08T06:26:43.712Z,6.60
2022-08-08T06:26:53.689Z,7.30
2022-08-08T06:27:53.661Z,6.90
2022-08-08T06:28:54.034Z,7.20
2022-08-08T06:30:01.079Z,7.40
2022-08-08T06:30:53.638Z,7.00
2022-08-08T06:32:10.298Z,7.20
2022-08-08T06:32:53.604Z,7.10
2022-08-08T06:34:27.038Z,6.90
2022-08-08T06:34:56.463Z,7.40
2022-08-08T06:36:08.418Z,7.60
2022-08-08T06:36:54.230Z,7.20
2022-08-08T06:37:55.723Z,6.60
2022-08-08T06:38:53.525Z,6.90
2022-08-08T06:39:55.722Z,6.60
2022-08-08T06:40:54.345Z,6.20
2022-08-08T06:41:53.490Z,6.70
2022-08-08T06:42:53.462Z,6.30
2022-08-08T06:43:57.267Z,6.70
2022-08-08T06:44:53.441Z,6.70
2022-08-08T06:45:53.451Z,6.60
2022-08-08T06:46:53.419Z,6.80
2022-08-08T06:48:01.572Z,6.60
2022-08-08T06:48:53.413Z,7.30
2022-08-08T06:49:55.685Z,7.00
2022-08-08T06:50:53.360Z,6.50
2022-08-08T06:51:57.920Z,6.90
2022-08-08T06:52:53.334Z,6.40
2022-08-08T06:53:56.433Z,6.50
2022-08-08T06:54:53.311Z,6.60
2022-08-08T06:56:02.038Z,7.50
2022-08-08T06:56:53.295Z,6.60
2022-08-08T06:57:56.402Z,6.20
2022-08-08T06:58:53.293Z,6.30
2022-08-08T07:00:12.125Z,6.70
2022-08-08T07:00:53.228Z,6.30
2022-08-08T07:02:26.962Z,6.30
2022-08-08T07:02:53.262Z,6.30
2022-08-08T07:04:40.100Z,6.00
2022-08-08T07:04:53.270Z,5.90
2022-08-08T07:05:53.156Z,6.90
2022-08-08T07:06:53.186Z,6.10
2022-08-08T07:07:53.129Z,6.10
2022-08-08T07:08:53.119Z,6.10
2022-08-08T07:09:59.647Z,6.20
2022-08-08T07:10:53.098Z,6.20
2022-08-08T07:11:53.079Z,6.00
2022-08-08T07:12:53.084Z,7.00
2022-08-08T07:13:59.976Z,6.60
2022-08-08T07:14:53.037Z,6.40
2022-08-08T07:16:07.053Z,6.40
2022-08-08T07:16:54.374Z,6.20
2022-08-08T07:18:01.840Z,6.40
2022-08-08T07:18:55.997Z,6.50
2022-08-08T07:19:52.992Z,6.30
2022-08-08T07:20:52.954Z,6.00
2022-08-08T07:21:53.026Z,6.20
2022-08-08T07:22:52.929Z,6.40
2022-08-08T07:24:01.100Z,6.10
2022-08-08T07:24:53.084Z,6.00
2022-08-08T07:25:54.656Z,6.20
2022-08-08T07:26:53.015Z,6.30
2022-08-08T07:28:02.186Z,5.90
2022-08-08T07:28:52.858Z,6.00
2022-08-08T07:30:01.894Z,5.70
2022-08-08T07:30:52.833Z,5.70
2022-08-08T07:31:52.830Z,6.20
2022-08-08T07:32:52.793Z,5.70
2022-08-08T07:33:53.669Z,5.30
2022-08-08T07:35:00.747Z,5.90
2022-08-08T07:35:54.487Z,5.80
2022-08-08T07:36:52.740Z,5.60
2022-08-08T07:38:04.663Z,5.20
2022-08-08T07:38:53.389Z,5.40
2022-08-08T07:39:57.896Z,5.30
2022-08-08T07:40:52.696Z,5.70
2022-08-08T07:41:58.625Z,5.10
2022-08-08T07:42:52.667Z,5.40
2022-08-08T07:43:54.300Z,5.70
2022-08-08T07:44:52.625Z,5.50
2022-08-08T07:46:17.470Z,5.50
2022-08-08T07:46:52.615Z,5.80
2022-08-08T07:47:52.601Z,5.90
2022-08-08T07:48:52.618Z,5.60
2022-08-08T07:49:52.616Z,5.20
2022-08-08T07:50:52.571Z,5.30
2022-08-08T07:51:53.622Z,5.50
2022-08-08T07:52:52.619Z,5.60
2022-08-08T07:54:03.042Z,5.30
2022-08-08T07:54:52.509Z,5.30
2022-08-08T07:55:52.502Z,5.10
2022-08-08T07:56:52.482Z,5.00
2022-08-08T07:57:52.466Z,5.40
2022-08-08T07:58:52.514Z,5.30
2022-08-08T07:59:52.439Z,5.20
2022-08-08T08:00:52.585Z,5.10
2022-08-08T08:02:37.034Z,5.00
2022-08-08T08:02:52.402Z,5.20
2022-08-08T08:03:52.370Z,5.10
2022-08-08T08:04:52.574Z,4.90
2022-08-08T08:05:53.312Z,4.80
2022-08-08T08:06:52.358Z,5.00
2022-08-08T08:07:52.906Z,5.40
2022-08-08T08:08:53.029Z,5.30
2022-08-08T08:09:52.300Z,4.90
2022-08-08T08:10:52.276Z,5.10
2022-08-08T08:11:52.753Z,5.10
2022-08-08T08:12:52.264Z,4.70
2022-08-08T08:14:08.567Z,5.20
2022-08-08T08:14:52.242Z,4.60
2022-08-08T08:15:52.210Z,4.60
2022-08-08T08:16:52.252Z,4.50
2022-08-08T08:17:55.776Z,4.70
2022-08-08T08:18:56.090Z,4.70
2022-08-08T08:19:55.789Z,5.00
2022-08-08T08:20:52.183Z,4.70
2022-08-08T08:21:58.302Z,5.20
2022-08-08T08:22:52.135Z,5.00
2022-08-08T08:23:52.103Z,4.80
2022-08-08T08:24:52.141Z,4.70
2022-08-08T08:25:58.273Z,5.10
2022-08-08T08:26:52.858Z,5.10
2022-08-08T08:27:52.053Z,4.80
2022-08-08T08:28:52.045Z,5.00
2022-08-08T08:29:53.273Z,4.50
2022-08-08T08:30:52.072Z,4.70
2022-08-08T08:31:57.295Z,4.70
2022-08-08T08:32:52.223Z,4.60
2022-08-08T08:33:51.977Z,4.70
2022-08-08T08:34:51.992Z,4.80
2022-08-08T08:36:19.271Z,4.60
2022-08-08T08:36:54.767Z,5.00
2022-08-08T08:38:13.590Z,4.30
2022-08-08T08:38:51.919Z,4.70
2022-08-08T08:40:02.026Z,4.70
2022-08-08T08:40:51.926Z,4.40
2022-08-08T08:41:51.868Z,4.60
2022-08-08T08:42:51.863Z,4.40
2022-08-08T08:43:52.135Z,4.30
2022-08-08T08:44:51.867Z,4.40
2022-08-08T08:45:57.426Z,5.00
2022-08-08T08:46:58.892Z,4.30
2022-08-08T08:47:53.098Z,4.40
2022-08-08T08:48:51.802Z,4.70
2022-08-08T08:49:51.773Z,4.60
2022-08-08T08:50:52.119Z,4.60
2022-08-08T08:51:52.032Z,4.40
2022-08-08T08:53:00.042Z,4.50
2022-08-08T08:53:56.658Z,4.70
2022-08-08T08:54:55.776Z,4.60
2022-08-08T08:55:52.989Z,5.10
2022-08-08T08:56:51.670Z,5.00
2022-08-08T08:57:51.676Z,4.70
2022-08-08T08:58:51.651Z,4.70
2022-08-08T09:00:00.140Z,4.70
2022-08-08T09:01:08.429Z,4.70
2022-08-08T09:01:51.704Z,4.70
2022-08-08T09:02:51.598Z,4.80
2022-08-08T09:03:51.767Z,5.00
2022-08-08T09:04:52.574Z,4.70
2022-08-08T09:05:54.177Z,4.50
2022-08-08T09:06:51.677Z,4.80
2022-08-08T09:07:52.356Z,4.30
2022-08-08T09:08:52.167Z,4.40
2022-08-08T09:09:57.218Z,4.30
2022-08-08T09:10:51.500Z,4.30
2022-08-08T09:12:02.005Z,4.20
2022-08-08T09:12:51.491Z,4.90
2022-08-08T09:13:51.446Z,4.40
2022-08-08T09:14:51.520Z,4.10
2022-08-08T09:15:51.436Z,4.40
2022-08-08T09:16:51.443Z,4.30
2022-08-08T09:17:52.336Z,4.20
2022-08-08T09:18:51.383Z,4.20
2022-08-08T09:21:59.246Z,4.10
2022-08-08T09:22:10.246Z,4.30
2022-08-08T09:22:19.631Z,4.10
2022-08-08T09:23:17.340Z,4.50
2022-08-08T09:24:15.174Z,4.50
2022-08-08T09:25:15.349Z,4.40
2022-08-08T09:26:15.135Z,4.50
2022-08-08T09:27:20.234Z,4.40
2022-08-08T09:28:37.452Z,4.40
2022-08-08T09:29:22.625Z,4.60
2022-08-08T09:30:17.196Z,4.50
2022-08-08T09:31:15.084Z,4.00
2022-08-08T09:32:15.057Z,4.30
2022-08-08T09:34:15.728Z,4.50
2022-08-08T09:34:37.810Z,4.40
2022-08-08T09:35:15.985Z,4.50
2022-08-08T09:36:15.004Z,4.40
2022-08-08T09:37:37.406Z,4.10
2022-08-08T09:38:18.026Z,4.40
2022-08-08T09:39:19.066Z,4.20
2022-08-08T09:40:15.100Z,4.30
2022-08-08T09:41:14.951Z,4.60
2022-08-08T09:42:22.297Z,5.10
2022-08-08T09:43:16.822Z,4.50
2022-08-08T09:44:19.134Z,4.30
2022-08-08T09:45:15.516Z,4.60
2022-08-08T09:46:16.799Z,4.10
2022-08-08T09:47:27.005Z,4.40
2022-08-08T09:48:16.264Z,4.30
2022-08-08T09:49:41.048Z,4.10
2022-08-08T09:50:15.016Z,4.50
2022-08-08T09:51:14.809Z,4.10
2022-08-08T09:52:16.321Z,4.10
2022-08-08T09:53:24.704Z,3.90
2022-08-08T09:54:19.879Z,4.10
2022-08-08T09:55:17.587Z,3.70
2022-08-08T09:56:24.774Z,3.80
2022-08-08T09:57:16.487Z,3.90
2022-08-08T09:58:20.238Z,4.10
2022-08-08T09:59:50.544Z,3.90
2022-08-08T10:00:36.003Z,3.80
2022-08-08T10:01:58.133Z,4.40
2022-08-08T10:02:14.887Z,4.20
2022-08-08T10:03:14.681Z,3.60
2022-08-08T10:04:14.638Z,3.80
2022-08-08T10:05:15.660Z,3.40
2022-08-08T10:06:14.613Z,3.80
2022-08-08T10:07:15.830Z,3.60
2022-08-08T10:08:14.587Z,3.50
2022-08-08T10:09:14.617Z,3.30
2022-08-08T10:10:14.557Z,3.50
2022-08-08T10:12:25.893Z,3.50
2022-08-08T10:12:37.771Z,3.30
2022-08-08T10:13:15.097Z,3.20
2022-08-08T10:14:27.562Z,3.10
2022-08-08T10:15:17.297Z,3.40
2022-08-08T10:16:14.480Z,3.40
2022-08-08T10:18:06.024Z,3.20
2022-08-08T10:18:22.286Z,3.30
2022-08-08T10:19:14.438Z,3.10
2022-08-08T10:20:16.879Z,3.30
2022-08-08T10:21:25.206Z,3.10
2022-08-08T10:22:14.423Z,3.90
2022-08-08T10:23:14.382Z,3.60
2022-08-08T10:24:28.518Z,3.30
2022-08-08T10:25:15.498Z,3.80
2022-08-08T10:26:25.833Z,3.80
2022-08-08T10:27:14.421Z,3.60
2022-08-08T10:28:15.075Z,4.00
2022-08-08T10:29:20.846Z,3.70
2022-08-08T10:30:16.289Z,3.80
2022-08-08T10:31:14.318Z,4.00
2022-08-08T10:32:14.272Z,3.70
2022-08-08T10:33:14.269Z,3.70
2022-08-08T10:34:18.934Z,3.60
2022-08-08T10:36:06.232Z,3.30
2022-08-08T10:36:24.060Z,3.30
2022-08-08T10:37:14.200Z,3.40
2022-08-08T10:38:14.227Z,3.20
2022-08-08T10:39:14.232Z,3.10
2022-08-08T10:40:16.301Z,2.90
2022-08-08T10:41:14.147Z,3.10
2022-08-08T10:42:16.226Z,3.10
2022-08-08T10:43:14.271Z,2.80
2022-08-08T10:44:14.109Z,2.80
2022-08-08T10:45:16.065Z,2.60
2022-08-08T10:46:29.671Z,2.70
2022-08-08T10:47:14.076Z,3.10
2022-08-08T10:48:14.082Z,2.90
2022-08-08T10:50:00.202Z,2.80
2022-08-08T10:50:15.511Z,3.00
2022-08-08T10:51:14.117Z,2.80
2022-08-08T10:52:14.001Z,3.00
2022-08-08T10:53:13.998Z,2.80
2022-08-08T10:54:13.973Z,2.60
2022-08-08T10:55:13.974Z,2.60
2022-08-08T10:56:27.920Z,2.60
2022-08-08T10:57:13.940Z,2.60
2022-08-08T10:58:13.936Z,2.60
2022-08-08T10:59:14.971Z,2.70
2022-08-08T11:00:13.893Z,2.60
2022-08-08T11:01:14.013Z,2.70
2022-08-08T11:02:13.952Z,2.60
2022-08-08T11:03:15.557Z,2.50
2022-08-08T11:05:40.909Z,2.30
2022-08-08T11:05:46.300Z,2.50
2022-08-08T11:06:47.435Z,2.40
2022-08-08T11:08:31.622Z,2.30
2022-08-08T11:08:53.093Z,2.40
2022-08-08T11:09:46.276Z,2.30
2022-08-08T11:10:46.249Z,2.30
2022-08-08T11:12:05.099Z,2.30
2022-08-08T11:12:46.874Z,2.10
2022-08-08T11:13:51.979Z,2.20
2022-08-08T11:14:46.220Z,2.10
2022-08-08T11:15:52.332Z,2.00
2022-08-08T11:16:46.452Z,2.10
2022-08-08T11:18:00.534Z,2.20
2022-08-08T11:18:46.139Z,2.30
2022-08-08T11:19:46.546Z,2.10
2022-08-08T11:20:52.345Z,2.00
2022-08-08T11:21:55.204Z,2.00
2022-08-08T11:22:46.117Z,2.20
2022-08-08T11:23:46.082Z,1.80
2022-08-08T11:24:46.096Z,2.00
2022-08-08T11:25:56.874Z,2.00
2022-08-08T11:26:56.352Z,2.00
2022-08-08T11:27:46.744Z,1.90
2022-08-08T11:28:46.031Z,2.00
2022-08-08T11:29:58.128Z,2.00
2022-08-08T11:30:51.836Z,2.30
2022-08-08T11:31:48.362Z,2.10
2022-08-08T11:32:47.452Z,2.00
2022-08-08T11:33:53.278Z,2.40
2022-08-08T11:35:07.877Z,2.20
2022-08-08T11:35:45.935Z,2.20
2022-08-08T11:36:45.897Z,2.30
2022-08-08T11:38:43.485Z,2.50
2022-08-08T11:38:59.065Z,2.20
2022-08-08T11:39:57.312Z,2.30
2022-08-08T11:40:49.814Z,2.20
2022-08-08T11:41:45.841Z,2.10
2022-08-08T11:42:45.819Z,2.50
2022-08-08T11:43:45.799Z,2.20
2022-08-08T11:44:45.801Z,2.10
2022-08-08T11:46:09.202Z,2.20
2022-08-08T11:46:45.778Z,2.10
2022-08-08T11:48:04.644Z,2.10
2022-08-08T11:48:47.335Z,1.90
2022-08-08T11:49:45.722Z,1.80
2022-08-08T11:50:45.716Z,2.10
2022-08-08T11:51:50.087Z,1.90
2022-08-08T11:52:48.134Z,2.00
2022-08-08T11:53:55.049Z,2.00
2022-08-08T11:54:46.605Z,1.90
2022-08-08T11:55:45.657Z,2.20
2022-08-08T11:56:45.669Z,2.00
2022-08-08T11:57:45.636Z,2.00
2022-08-08T11:58:45.641Z,2.00
2022-08-08T12:00:00.257Z,2.30
2022-08-08T12:00:45.591Z,2.20
2022-08-08T12:01:45.601Z,2.10
2022-08-08T12:02:45.905Z,2.20
2022-08-08T12:03:45.666Z,2.10
2022-08-08T12:04:45.531Z,2.30
2022-08-08T12:05:45.525Z,2.10
2022-08-08T12:06:45.531Z,2.20
2022-08-08T12:07:45.503Z,2.10
2022-08-08T12:08:45.477Z,2.30
2022-08-08T12:09:59.512Z,2.70
2022-08-08T12:10:47.656Z,2.50
2022-08-08T12:11:45.832Z,2.50
2022-08-08T12:12:45.767Z,2.40
2022-08-08T12:14:03.530Z,2.20
2022-08-08T12:14:45.409Z,2.30
2022-08-08T12:15:47.174Z,2.10
2022-08-08T12:16:47.487Z,2.10
2022-08-08T12:17:50.903Z,2.40
2022-08-08T12:18:45.380Z,2.40
2022-08-08T12:19:51.639Z,2.40
2022-08-08T12:20:45.332Z,2.20
2022-08-08T12:21:59.383Z,2.20
2022-08-08T12:22:45.819Z,2.10
2022-08-08T12:23:59.455Z,2.00
2022-08-08T12:24:51.367Z,2.00
2022-08-08T12:25:52.640Z,2.00
2022-08-08T12:26:45.253Z,2.30
2022-08-08T12:27:47.909Z,2.40
2022-08-08T12:28:45.260Z,2.10
2022-08-08T12:29:45.581Z,2.20
2022-08-08T12:30:47.918Z,2.20
2022-08-08T12:31:53.662Z,2.10
2022-08-08T12:32:45.189Z,2.20
2022-08-08T12:34:02.733Z,2.00
2022-08-08T12:34:45.178Z,2.10
2022-08-08T12:35:52.871Z,1.90
2022-08-08T12:36:46.270Z,1.80
2022-08-08T12:37:47.872Z,1.80
2022-08-08T12:38:45.146Z,2.20
2022-08-08T12:40:01.881Z,1.80
2022-08-08T12:40:56.796Z,1.90
2022-08-08T12:41:57.377Z,1.90
2022-08-08T12:42:47.351Z,2.10
2022-08-08T12:43:59.450Z,2.10
2022-08-08T12:44:48.249Z,1.80
2022-08-08T12:45:57.753Z,1.80
2022-08-08T12:46:44.988Z,1.80
2022-08-08T12:48:04.810Z,1.70
2022-08-08T12:48:54.930Z,1.80
2022-08-08T12:49:45.496Z,1.90
2022-08-08T12:50:46.852Z,1.90
2022-08-08T12:51:50.061Z,1.90
2022-08-08T12:52:44.935Z,1.80
2022-08-08T12:53:44.919Z,2.00
2022-08-08T12:54:45.955Z,1.90
2022-08-08T12:56:05.653Z,1.70
2022-08-08T12:56:44.893Z,1.80
2022-08-08T12:57:49.790Z,1.90
2022-08-08T12:58:44.851Z,1.70
2022-08-08T13:00:06.267Z,1.80
2022-08-08T13:00:44.823Z,2.40
2022-08-08T13:01:44.882Z,1.60
2022-08-08T13:02:51.400Z,1.60
2022-08-08T13:03:44.780Z,1.60
2022-08-08T13:04:44.762Z,1.70
2022-08-08T13:06:04.364Z,1.50
2022-08-08T13:06:44.769Z,1.90
2022-08-08T13:08:03.265Z,1.60
2022-08-08T13:08:53.283Z,1.50
2022-08-08T13:10:04.205Z,1.60
2022-08-08T13:10:55.358Z,1.60
2022-08-08T13:12:19.866Z,1.60
2022-08-08T13:12:46.934Z,1.60
2022-08-08T13:13:44.647Z,1.80
2022-08-08T13:14:52.835Z,1.70
2022-08-08T13:15:44.624Z,1.60
2022-08-08T13:16:49.170Z,1.80
2022-08-08T13:18:08.594Z,1.40
2022-08-08T13:18:56.926Z,1.60
2022-08-08T13:19:50.270Z,1.80